createdAt,value
2023-02-15T00:01:34.883Z,64.87
2023-02-15T00:04:01.168Z,64.27
2023-02-15T00:06:27.596Z,64.23
2023-02-15T00:08:54.784Z,72.50
2023-02-15T00:11:40.464Z,61.83
2023-02-15T00:14:11.359Z,65.80
2023-02-15T00:16:38.288Z,62.73
2023-02-15T00:19:04.745Z,64.67
2023-02-15T00:21:31.608Z,59.30
2023-02-15T00:23:58.928Z,64.03
2023-02-15T00:26:25.621Z,59.47
2023-02-15T00:28:52.116Z,63.30
2023-02-15T00:31:18.524Z,59.97
2023-02-15T00:33:44.960Z,57.87
2023-02-15T00:36:11.641Z,64.00
2023-02-15T00:38:39.345Z,65.47
2023-02-15T00:41:06.499Z,64.63
2023-02-15T00:43:33.613Z,66.03
2023-02-15T00:46:00.330Z,58.87
2023-02-15T00:48:26.943Z,57.67
2023-02-15T00:50:54.411Z,58.07
2023-02-15T00:53:21.473Z,60.67
2023-02-15T00:55:47.919Z,52.40
2023-02-15T00:58:14.652Z,59.33
2023-02-15T01:00:41.938Z,64.20
2023-02-15T01:03:09.542Z,49.13
2023-02-15T01:05:35.886Z,49.93
2023-02-15T01:08:02.373Z,53.60
2023-02-15T01:10:29.364Z,50.23
2023-02-15T01:12:56.062Z,55.50
2023-02-15T01:15:22.619Z,49.97
2023-02-15T01:17:53.619Z,50.97
2023-02-15T01:20:20.431Z,47.37
2023-02-15T01:22:46.798Z,52.87
2023-02-15T01:25:13.590Z,55.27
2023-02-15T01:27:40.945Z,45.77
2023-02-15T01:30:07.871Z,41.13
2023-02-15T01:32:34.180Z,45.40
2023-02-15T01:35:00.501Z,47.27
2023-02-15T01:37:26.772Z,42.47
2023-02-15T01:39:54.552Z,43.97
2023-02-15T01:42:25.171Z,42.90
2023-02-15T01:44:59.392Z,39.70
2023-02-15T01:50:02.534Z,39.93
2023-02-15T01:52:29.356Z,36.80
2023-02-15T01:54:55.871Z,40.77
2023-02-15T01:57:25.434Z,37.00
2023-02-15T01:59:54.793Z,38.37
2023-02-15T02:02:28.226Z,37.27
2023-02-15T02:04:57.674Z,33.87
2023-02-15T02:07:27.331Z,37.30
2023-02-15T02:09:53.670Z,37.13
2023-02-15T02:12:22.222Z,39.77
2023-02-15T02:14:48.983Z,34.80
2023-02-15T02:17:34.120Z,37.40
2023-02-15T02:20:03.580Z,35.10
2023-02-15T02:22:29.856Z,36.80
2023-02-15T02:24:56.217Z,34.33
2023-02-15T02:27:28.639Z,29.10
2023-02-15T02:30:04.254Z,34.97
2023-02-15T02:35:40.588Z,35.43
2023-02-15T02:38:11.128Z,35.50
2023-02-15T02:40:50.081Z,39.20
2023-02-15T02:43:22.402Z,35.50
2023-02-15T02:45:53.858Z,33.97
2023-02-15T02:48:22.573Z,33.37
2023-02-15T02:50:48.932Z,36.57
2023-02-15T02:53:15.248Z,29.83
2023-02-15T02:55:52.642Z,30.97
2023-02-15T02:58:38.369Z,32.43
2023-02-15T03:01:07.247Z,27.60
2023-02-15T03:03:38.830Z,28.77
2023-02-15T03:06:07.094Z,31.93
2023-02-15T03:08:36.937Z,32.73
2023-02-15T03:11:04.142Z,32.07
2023-02-15T03:13:30.853Z,34.77
2023-02-15T03:16:16.704Z,34.53
2023-02-15T03:18:45.108Z,33.40
2023-02-15T03:21:23.099Z,32.03
2023-02-15T03:24:01.832Z,37.43
2023-02-15T03:26:29.533Z,32.23
2023-02-15T03:28:57.786Z,25.47
2023-02-15T03:31:25.918Z,29.30
2023-02-15T03:33:58.140Z,28.37
2023-02-15T03:36:37.698Z,29.27
2023-02-15T03:39:22.596Z,28.47
2023-02-15T03:41:52.917Z,26.43
2023-02-15T03:44:32.635Z,30.33
2023-02-15T03:46:59.008Z,26.17
2023-02-15T03:49:27.603Z,31.23
2023-02-15T03:51:55.542Z,25.50
2023-02-15T03:54:45.715Z,28.97
2023-02-15T03:57:44.346Z,25.50
2023-02-15T04:00:35.810Z,26.07
2023-02-15T04:03:04.859Z,25.70
2023-02-15T04:05:31.200Z,26.23
2023-02-15T04:07:57.507Z,26.50
2023-02-15T04:10:42.799Z,27.50
2023-02-15T04:13:09.112Z,24.03
2023-02-15T04:15:55.012Z,27.07
2023-02-15T04:18:21.317Z,25.43
2023-02-15T04:21:06.857Z,26.97
2023-02-15T04:23:51.538Z,29.10
2023-02-15T04:26:17.940Z,27.07
2023-02-15T04:28:44.378Z,31.47
2023-02-15T04:31:12.924Z,27.83
2023-02-15T04:33:39.328Z,28.83
2023-02-15T04:36:05.989Z,30.53
2023-02-15T04:38:32.283Z,31.27
2023-02-15T04:40:58.656Z,34.80
2023-02-15T04:43:25.054Z,32.77
2023-02-15T04:45:51.623Z,38.23
2023-02-15T04:48:18.741Z,33.73
2023-02-15T04:50:45.570Z,34.53
2023-02-15T04:53:12.227Z,40.33
2023-02-15T04:55:38.550Z,35.13
2023-02-15T04:58:04.948Z,40.07
2023-02-15T05:00:31.235Z,41.23
2023-02-15T05:02:57.622Z,41.20
2023-02-15T05:05:23.959Z,41.37
2023-02-15T05:07:50.326Z,41.60
2023-02-15T05:10:16.755Z,45.47
2023-02-15T05:12:43.063Z,42.90
2023-02-15T05:15:09.588Z,43.73
2023-02-15T05:17:36.015Z,39.93
2023-02-15T05:20:02.375Z,40.47
2023-02-15T05:22:28.748Z,39.07
2023-02-15T05:25:13.923Z,50.47
2023-02-15T05:27:58.736Z,36.10
2023-02-15T05:30:25.221Z,42.47
2023-02-15T05:32:51.628Z,39.53
2023-02-15T05:35:18.250Z,48.63
2023-02-15T05:37:44.670Z,45.03
2023-02-15T05:40:11.231Z,38.77
2023-02-15T05:42:37.581Z,44.37
2023-02-15T05:45:04.786Z,44.70
2023-02-15T05:47:31.154Z,39.27
2023-02-15T05:49:57.461Z,43.27
2023-02-15T05:52:23.843Z,43.97
2023-02-15T05:54:50.177Z,42.43
2023-02-15T05:57:16.454Z,49.87
2023-02-15T05:59:43.029Z,47.63
2023-02-15T06:02:09.508Z,45.07
2023-02-15T06:04:35.876Z,45.77
2023-02-15T06:07:02.155Z,49.83
2023-02-15T06:09:28.531Z,46.67
2023-02-15T06:11:54.898Z,49.03
2023-02-15T06:14:21.378Z,52.23
2023-02-15T06:16:47.710Z,48.90
2023-02-15T06:19:14.118Z,44.63
2023-02-15T06:21:40.409Z,52.13
2023-02-15T06:24:06.728Z,45.13
2023-02-15T06:26:33.678Z,49.93
2023-02-15T06:28:59.967Z,46.20
2023-02-15T06:31:26.378Z,44.27
2023-02-15T06:33:52.778Z,47.70
2023-02-15T06:36:19.045Z,42.30
2023-02-15T06:38:45.454Z,41.50
2023-02-15T06:41:11.765Z,43.17
2023-02-15T06:43:40.026Z,51.63
2023-02-15T06:46:07.222Z,48.73
2023-02-15T06:48:33.531Z,46.87
2023-02-15T06:50:59.817Z,46.40
2023-02-15T06:53:26.121Z,43.47
2023-02-15T06:55:52.404Z,47.60
2023-02-15T06:58:18.806Z,51.77
2023-02-15T07:00:45.133Z,40.70
2023-02-15T07:03:13.963Z,48.83
2023-02-15T07:05:40.757Z,46.73
2023-02-15T07:08:07.146Z,47.43
2023-02-15T07:10:33.486Z,42.03
2023-02-15T07:12:59.783Z,42.37
2023-02-15T07:15:26.159Z,38.80
2023-02-15T07:17:52.442Z,47.20
2023-02-15T07:20:20.263Z,41.53
2023-02-15T07:22:46.886Z,41.50
2023-02-15T07:25:13.602Z,44.47
2023-02-15T07:27:41.201Z,41.93
2023-02-15T07:30:08.660Z,46.63
2023-02-15T07:32:35.086Z,47.17
2023-02-15T07:35:01.527Z,42.60
2023-02-15T07:37:28.432Z,49.57
2023-02-15T07:39:54.752Z,44.43
2023-02-15T07:42:22.089Z,45.30
2023-02-15T07:44:48.503Z,42.17
2023-02-15T07:47:14.941Z,40.33
2023-02-15T07:49:41.248Z,44.87
2023-02-15T07:52:07.633Z,44.47
2023-02-15T07:54:33.950Z,48.87
2023-02-15T07:57:01.353Z,42.70
2023-02-15T07:59:28.277Z,48.03
2023-02-15T08:01:57.262Z,43.90
2023-02-15T08:04:24.234Z,51.53
2023-02-15T08:06:52.682Z,46.83
2023-02-15T08:09:18.983Z,47.30
2023-02-15T08:11:45.429Z,48.43
2023-02-15T08:14:11.705Z,43.73
2023-02-15T08:16:48.224Z,44.77
2023-02-15T08:19:14.609Z,42.50
2023-02-15T08:21:45.273Z,46.07
2023-02-15T08:24:12.344Z,51.97
2023-02-15T08:26:41.812Z,43.40
2023-02-15T08:29:09.208Z,48.83
2023-02-15T08:31:36.539Z,46.43
2023-02-15T08:34:03.104Z,45.50
2023-02-15T08:36:30.541Z,46.40
2023-02-15T08:39:01.936Z,53.40
2023-02-15T08:41:30.377Z,52.37
2023-02-15T08:43:58.164Z,53.53
2023-02-15T08:46:25.642Z,48.07
2023-02-15T08:48:51.950Z,51.20
2023-02-15T08:51:22.583Z,55.93
2023-02-15T08:53:50.096Z,47.77
2023-02-15T08:56:17.405Z,49.20
2023-02-15T08:58:43.717Z,53.23
2023-02-15T09:01:11.139Z,55.37
2023-02-15T09:03:37.753Z,58.00
2023-02-15T09:06:04.098Z,53.93
2023-02-15T09:08:30.753Z,62.03
2023-02-15T09:11:05.440Z,59.73
2023-02-15T09:13:31.837Z,65.63
2023-02-15T09:16:05.419Z,63.87
2023-02-15T09:18:32.766Z,63.13
2023-02-15T09:21:06.779Z,63.27
2023-02-15T09:23:33.148Z,60.77
2023-02-15T09:26:02.510Z,57.93
2023-02-15T09:28:28.803Z,59.60
2023-02-15T09:30:56.624Z,75.77
2023-02-15T09:33:23.054Z,73.77
2023-02-15T09:35:49.350Z,75.70
2023-02-15T09:38:15.835Z,81.63
2023-02-15T09:40:47.661Z,79.90
2023-02-15T09:43:37.380Z,88.90
2023-02-15T09:46:03.983Z,97.30
2023-02-15T09:48:30.652Z,90.47
2023-02-15T09:51:15.456Z,91.00
2023-02-15T09:53:58.407Z,91.07
2023-02-15T09:56:30.562Z,108.83
2023-02-15T09:59:02.918Z,97.23
2023-02-15T10:01:37.262Z,101.77
2023-02-15T10:04:09.611Z,106.20
2023-02-15T10:06:42.998Z,98.57
2023-02-15T10:09:35.681Z,105.47
2023-02-15T10:12:08.359Z,105.50
2023-02-15T10:14:38.971Z,112.87
2023-02-15T10:17:20.004Z,104.40
2023-02-15T10:20:11.477Z,96.50
2023-02-15T10:22:43.063Z,118.10
2023-02-15T10:25:18.515Z,107.00
2023-02-15T10:27:49.415Z,102.37
2023-02-15T10:30:16.896Z,110.23
2023-02-15T10:33:03.579Z,110.20
2023-02-15T10:35:42.190Z,103.47
2023-02-15T10:38:14.236Z,103.70
2023-02-15T10:40:43.548Z,94.53
2023-02-15T10:43:34.679Z,95.50
2023-02-15T10:46:04.221Z,81.67
2023-02-15T10:48:49.118Z,89.87
2023-02-15T10:51:47.940Z,78.50
2023-02-15T10:54:28.333Z,83.10
2023-02-15T10:57:00.571Z,75.77
2023-02-15T10:59:47.892Z,70.27
2023-02-15T11:02:24.417Z,63.80
2023-02-15T11:04:50.835Z,68.80
2023-02-15T11:07:20.403Z,69.60
2023-02-15T11:10:05.493Z,66.97
2023-02-15T11:12:32.472Z,68.03
2023-02-15T11:15:17.706Z,56.50
2023-02-15T11:17:48.463Z,59.13
2023-02-15T11:20:17.631Z,58.20
2023-02-15T11:22:47.596Z,55.33
2023-02-15T11:25:18.875Z,55.97
2023-02-15T11:27:47.746Z,59.23
2023-02-15T11:30:15.404Z,58.47
2023-02-15T11:32:44.376Z,58.73
2023-02-15T11:35:10.673Z,62.43
2023-02-15T11:37:40.720Z,60.63
2023-02-15T11:40:23.386Z,68.33
2023-02-15T11:42:50.967Z,59.93
2023-02-15T11:45:24.757Z,57.73
2023-02-15T11:47:51.099Z,54.97
2023-02-15T11:50:22.903Z,51.77
2023-02-15T11:52:50.541Z,67.97
2023-02-15T11:55:20.032Z,55.77
2023-02-15T11:57:51.267Z,58.50
2023-02-15T12:00:23.398Z,54.03
2023-02-15T12:02:52.947Z,56.13
2023-02-15T12:05:23.967Z,57.60
2023-02-15T12:07:53.228Z,56.23
2023-02-15T12:10:19.657Z,59.47
2023-02-15T12:12:46.045Z,58.33
2023-02-15T12:15:13.092Z,57.30
2023-02-15T12:17:40.531Z,55.33
2023-02-15T12:20:15.774Z,55.23
2023-02-15T12:22:55.625Z,56.40
2023-02-15T12:25:24.346Z,67.13
2023-02-15T12:27:50.845Z,57.90
2023-02-15T12:30:19.918Z,56.33
2023-02-15T12:32:52.221Z,55.83
2023-02-15T12:35:27.592Z,60.03
2023-02-15T12:38:12.336Z,59.23
2023-02-15T12:40:41.054Z,56.50
2023-02-15T12:43:25.881Z,53.73
2023-02-15T12:45:52.227Z,59.07
2023-02-15T12:48:20.096Z,53.20
2023-02-15T12:50:57.495Z,53.20
2023-02-15T12:53:33.205Z,54.27
2023-02-15T12:56:00.901Z,53.50
2023-02-15T12:58:28.217Z,57.80
2023-02-15T13:01:09.552Z,52.77
2023-02-15T13:03:54.566Z,55.93
2023-02-15T13:06:21.618Z,58.33
2023-02-15T13:08:51.851Z,57.87
2023-02-15T13:11:31.364Z,55.10
2023-02-15T13:13:59.584Z,54.33
2023-02-15T13:16:31.961Z,55.77
2023-02-15T13:18:59.069Z,55.67
2023-02-15T13:21:31.908Z,57.57
2023-02-15T13:24:01.030Z,53.20
2023-02-15T13:26:30.536Z,57.80
2023-02-15T13:28:58.220Z,54.40
2023-02-15T13:31:28.710Z,50.60
2023-02-15T13:34:01.415Z,47.27
2023-02-15T13:36:31.171Z,54.90
2023-02-15T13:39:03.385Z,53.23
2023-02-15T13:41:34.532Z,56.50
2023-02-15T13:44:14.288Z,58.43
2023-02-15T13:46:42.594Z,56.03
2023-02-15T13:49:22.674Z,52.47
2023-02-15T13:51:55.190Z,50.50
2023-02-15T13:54:36.936Z,56.40
2023-02-15T13:57:21.772Z,49.67
2023-02-15T14:00:26.677Z,55.90
2023-02-15T14:03:11.553Z,51.67
2023-02-15T14:05:37.865Z,55.73
2023-02-15T14:08:11.015Z,50.60
2023-02-15T14:10:56.765Z,56.33
2023-02-15T14:13:23.041Z,45.67
2023-02-15T14:16:29.976Z,55.30
2023-02-15T14:19:00.559Z,52.10
2023-02-15T14:21:35.569Z,49.70
2023-02-15T14:24:18.937Z,52.40
2023-02-15T14:26:57.029Z,53.27
2023-02-15T14:29:26.284Z,53.67
2023-02-15T14:31:55.980Z,51.30
2023-02-15T14:34:36.997Z,51.93
2023-02-15T14:37:06.505Z,53.63
2023-02-15T14:39:56.520Z,49.80
2023-02-15T14:42:37.310Z,48.43
2023-02-15T14:45:03.644Z,49.27
2023-02-15T14:47:36.351Z,51.53
2023-02-15T14:50:24.050Z,51.33
2023-02-15T14:53:16.822Z,51.80
2023-02-15T14:55:43.232Z,51.70
2023-02-15T14:58:12.482Z,49.23
2023-02-15T15:00:39.868Z,51.67
2023-02-15T15:03:18.501Z,52.27
2023-02-15T15:05:50.494Z,50.43
2023-02-15T15:08:43.002Z,52.90
2023-02-15T15:11:43.832Z,49.53
2023-02-15T15:14:11.418Z,48.67
2023-02-15T15:16:40.808Z,45.27
2023-02-15T15:19:11.293Z,49.03
2023-02-15T15:21:49.831Z,51.40
2023-02-15T15:24:34.917Z,51.37
2023-02-15T15:27:20.192Z,46.00
2023-02-15T15:29:46.705Z,45.10
2023-02-15T15:32:27.918Z,50.40
2023-02-15T15:35:07.659Z,47.87
2023-02-15T15:37:52.725Z,50.33
2023-02-15T15:40:25.184Z,44.50
2023-02-15T15:43:10.291Z,48.57
2023-02-15T15:45:36.642Z,44.07
2023-02-15T15:48:21.845Z,46.50
2023-02-15T15:50:49.661Z,48.83
2023-02-15T15:53:26.237Z,49.03
2023-02-15T15:55:56.503Z,45.13
2023-02-15T15:58:23.176Z,43.47
2023-02-15T16:00:54.293Z,53.57
2023-02-15T16:03:24.982Z,46.43
2023-02-15T16:05:55.297Z,52.40
2023-02-15T16:08:33.053Z,43.83
2023-02-15T16:10:59.804Z,51.03
2023-02-15T16:13:26.349Z,48.93
2023-02-15T16:15:53.961Z,54.13
2023-02-15T16:18:25.256Z,48.77
2023-02-15T16:20:56.751Z,45.67
2023-02-15T16:23:39.755Z,47.80
2023-02-15T16:26:25.304Z,51.23
2023-02-15T16:28:55.667Z,50.77
2023-02-15T16:31:25.614Z,51.40
2023-02-15T16:33:56.061Z,49.10
2023-02-15T16:36:23.756Z,46.23
2023-02-15T16:38:50.147Z,52.73
2023-02-15T16:41:18.028Z,48.43
2023-02-15T16:43:46.514Z,45.80
2023-02-15T16:46:16.459Z,53.30
2023-02-15T16:48:46.332Z,49.63
2023-02-15T16:51:19.886Z,54.30
2023-02-15T16:53:47.567Z,51.10
2023-02-15T16:56:14.040Z,50.23
2023-02-15T16:58:45.007Z,50.73
2023-02-15T17:01:13.147Z,53.57
2023-02-15T17:03:40.713Z,51.20
2023-02-15T17:06:19.910Z,45.20
2023-02-15T17:08:49.629Z,47.30
2023-02-15T17:11:17.592Z,46.17
2023-02-15T17:14:03.560Z,53.33
2023-02-15T17:16:32.907Z,50.87
2023-02-15T17:19:00.242Z,53.30
2023-02-15T17:21:30.338Z,48.90
2023-02-15T17:24:01.517Z,51.90
2023-02-15T17:26:29.786Z,54.10
2023-02-15T17:28:57.803Z,55.77
2023-02-15T17:31:25.834Z,56.30
2023-02-15T17:33:55.326Z,51.57
2023-02-15T17:36:25.532Z,48.23
2023-02-15T17:38:58.935Z,49.40
2023-02-15T17:41:25.889Z,50.53
2023-02-15T17:43:52.401Z,53.70
2023-02-15T17:46:24.613Z,56.30
2023-02-15T17:48:52.083Z,51.87
2023-02-15T17:51:19.329Z,51.43
2023-02-15T17:54:06.233Z,49.53
2023-02-15T17:56:33.236Z,44.47
2023-02-15T17:58:59.660Z,49.97
2023-02-15T18:01:44.540Z,51.17
2023-02-15T18:04:31.043Z,52.83
2023-02-15T18:07:15.874Z,50.60
2023-02-15T18:10:00.699Z,48.57
2023-02-15T18:12:28.776Z,57.60
2023-02-15T18:14:56.308Z,49.27
2023-02-15T18:17:27.262Z,50.20
2023-02-15T18:19:54.240Z,51.00
2023-02-15T18:22:21.032Z,50.93
2023-02-15T18:24:48.202Z,43.53
2023-02-15T18:27:15.257Z,47.17
2023-02-15T18:29:42.196Z,47.80
2023-02-15T18:32:10.838Z,49.00
2023-02-15T18:34:38.598Z,44.17
2023-02-15T18:37:06.510Z,45.63
2023-02-15T18:39:40.697Z,43.97
2023-02-15T18:42:13.948Z,43.50
2023-02-15T18:44:40.785Z,43.43
2023-02-15T18:47:08.095Z,47.00
2023-02-15T18:49:34.386Z,42.73
2023-02-15T18:52:01.732Z,44.40
2023-02-15T18:54:28.151Z,45.77
2023-02-15T18:56:58.477Z,43.23
2023-02-15T18:59:26.043Z,46.00
2023-02-15T19:01:52.935Z,45.23
2023-02-15T19:04:19.351Z,48.13
2023-02-15T19:06:49.226Z,47.50
2023-02-15T19:09:17.223Z,49.03
2023-02-15T19:11:48.635Z,47.80
2023-02-15T19:14:35.326Z,49.83
2023-02-15T19:17:01.702Z,48.03
2023-02-15T19:19:28.176Z,43.67
2023-02-15T19:21:55.282Z,43.37
2023-02-15T19:24:25.018Z,41.17
2023-02-15T19:26:51.935Z,47.20
2023-02-15T19:29:29.542Z,40.30
2023-02-15T19:31:56.229Z,47.20
2023-02-15T19:34:22.732Z,38.97
2023-02-15T19:36:50.299Z,45.97
2023-02-15T19:39:30.318Z,39.77
2023-02-15T19:41:56.757Z,44.53
2023-02-15T19:44:23.075Z,43.30
2023-02-15T19:46:49.564Z,46.20
2023-02-15T19:49:15.997Z,32.97
2023-02-15T19:51:42.710Z,37.40
2023-02-15T19:54:41.180Z,42.00
2023-02-15T19:57:10.668Z,44.97
2023-02-15T19:59:37.050Z,40.97
2023-02-15T20:02:05.625Z,34.43
2023-02-15T20:04:31.980Z,44.50
2023-02-15T20:07:00.591Z,43.30
2023-02-15T20:09:30.732Z,41.53
2023-02-15T20:11:57.036Z,42.77
2023-02-15T20:14:23.873Z,48.27
2023-02-15T20:16:50.273Z,44.20
2023-02-15T20:19:16.830Z,38.63
2023-02-15T20:21:44.599Z,51.23
2023-02-15T20:24:18.877Z,43.57
2023-02-15T20:26:45.312Z,39.87
2023-02-15T20:29:18.446Z,39.57
2023-02-15T20:31:45.217Z,39.67
2023-02-15T20:34:11.833Z,40.83
2023-02-15T20:36:39.048Z,42.10
2023-02-15T20:39:12.177Z,44.23
2023-02-15T20:41:47.629Z,42.77
2023-02-15T20:44:27.650Z,43.13
2023-02-15T20:46:55.051Z,43.10
2023-02-15T20:49:23.966Z,46.23
2023-02-15T20:51:50.830Z,44.53
2023-02-15T20:54:18.633Z,42.77
2023-02-15T20:56:45.773Z,44.03
2023-02-15T20:59:29.030Z,38.80
2023-02-15T21:01:57.967Z,43.20
2023-02-15T21:04:28.444Z,42.90
2023-02-15T21:06:55.201Z,47.80
2023-02-15T21:09:21.543Z,43.40
2023-02-15T21:11:48.645Z,44.10
2023-02-15T21:14:19.179Z,47.13
2023-02-15T21:16:46.267Z,43.53
2023-02-15T21:19:14.131Z,42.17
2023-02-15T21:21:40.554Z,42.37
2023-02-15T21:24:07.259Z,41.93
2023-02-15T21:26:34.005Z,41.63
2023-02-15T21:29:00.429Z,47.93
2023-02-15T21:31:28.633Z,45.13
2023-02-15T21:33:55.052Z,42.27
2023-02-15T21:36:23.928Z,40.20
2023-02-15T21:38:50.607Z,42.70
2023-02-15T21:41:36.379Z,39.70
2023-02-15T21:44:21.273Z,47.53
2023-02-15T21:47:06.102Z,45.57
2023-02-15T21:49:32.416Z,40.07
2023-02-15T21:52:14.305Z,39.13
2023-02-15T21:54:41.171Z,47.90
2023-02-15T21:57:12.672Z,45.70
2023-02-15T21:59:38.993Z,48.47
2023-02-15T22:02:23.108Z,46.67
2023-02-15T22:04:49.419Z,45.87
2023-02-15T22:07:18.302Z,48.30
2023-02-15T22:09:44.656Z,46.60
2023-02-15T22:12:17.688Z,46.13
2023-02-15T22:14:53.368Z,47.97
2023-02-15T22:17:21.368Z,42.33
2023-02-15T22:19:48.771Z,41.57
2023-02-15T22:22:15.538Z,48.77
2023-02-15T22:24:42.401Z,49.23
2023-02-15T22:27:25.784Z,37.40
2023-02-15T22:29:52.234Z,42.60
2023-02-15T22:32:20.495Z,43.50
2023-02-15T22:34:47.114Z,40.07
2023-02-15T22:37:13.499Z,40.23
2023-02-15T22:39:39.828Z,44.90
2023-02-15T22:42:06.912Z,37.20
2023-02-15T22:44:33.697Z,42.87
2023-02-15T22:47:00.527Z,43.50
2023-02-15T22:49:27.485Z,44.93
2023-02-15T22:51:53.929Z,41.10
2023-02-15T22:54:20.353Z,43.23
2023-02-15T22:56:48.920Z,42.17
2023-02-15T22:59:28.744Z,44.93
2023-02-15T23:01:55.591Z,37.97
2023-02-15T23:04:26.420Z,44.57
2023-02-15T23:06:53.361Z,44.10
2023-02-15T23:09:19.751Z,44.27
2023-02-15T23:11:46.300Z,41.57
2023-02-15T23:14:24.951Z,40.97
2023-02-15T23:16:51.729Z,44.73
2023-02-15T23:19:18.071Z,37.47
2023-02-15T23:21:44.719Z,47.53
2023-02-15T23:24:17.188Z,38.63
2023-02-15T23:26:43.505Z,38.97
2023-02-15T23:29:13.368Z,44.17
2023-02-15T23:31:42.209Z,41.40
2023-02-15T23:34:16.485Z,42.47
2023-02-15T23:36:44.331Z,49.93
2023-02-15T23:39:35.574Z,40.83
2023-02-15T23:42:03.294Z,46.93
2023-02-15T23:44:30.134Z,45.77
2023-02-15T23:46:56.608Z,42.27
2023-02-15T23:49:23.456Z,40.23
2023-02-15T23:51:51.157Z,41.17
2023-02-15T23:54:18.339Z,39.57
2023-02-15T23:56:45.946Z,41.50
2023-02-15T23:59:16.608Z,40.17
